createdAt,value
2023-05-15T00:00:15.080Z,32.70
2023-05-15T00:01:15.100Z,32.72
2023-05-15T00:02:15.159Z,32.72
2023-05-15T00:03:15.287Z,32.71
2023-05-15T00:04:15.269Z,32.70
2023-05-15T00:05:15.276Z,32.71
2023-05-15T00:06:15.300Z,32.68
2023-05-15T00:07:15.356Z,32.69
2023-05-15T00:08:15.394Z,32.68
2023-05-15T00:09:15.441Z,32.67
2023-05-15T00:10:15.485Z,32.68
2023-05-15T00:11:15.502Z,32.68
2023-05-15T00:12:15.570Z,32.67
2023-05-15T00:13:15.583Z,32.68
2023-05-15T00:14:15.648Z,32.66
2023-05-15T00:15:15.674Z,32.68
2023-05-15T00:16:15.801Z,32.64
2023-05-15T00:17:15.777Z,32.66
2023-05-15T00:18:15.791Z,32.66
2023-05-15T00:19:15.910Z,32.65
2023-05-15T00:20:15.900Z,32.64
2023-05-15T00:21:15.940Z,32.67
2023-05-15T00:22:15.967Z,32.64
2023-05-15T00:23:16.011Z,32.66
2023-05-15T00:24:16.053Z,32.64
2023-05-15T00:25:16.114Z,32.65
2023-05-15T00:26:16.185Z,32.64
2023-05-15T00:27:16.202Z,32.62
2023-05-15T00:28:16.239Z,32.64
2023-05-15T00:29:16.271Z,32.65
2023-05-15T00:30:16.342Z,32.66
2023-05-15T00:31:16.407Z,32.63
2023-05-15T00:32:16.422Z,32.61
2023-05-15T00:33:16.464Z,32.62
2023-05-15T00:34:16.518Z,32.64
2023-05-15T00:35:16.549Z,32.62
2023-05-15T00:36:16.597Z,32.63
2023-05-15T00:37:16.644Z,32.63
2023-05-15T00:38:16.702Z,32.64
2023-05-15T00:39:16.725Z,32.63
2023-05-15T00:40:16.788Z,32.62
2023-05-15T00:41:16.823Z,32.64
2023-05-15T00:42:16.881Z,32.63
2023-05-15T00:43:16.921Z,32.61
2023-05-15T00:44:16.959Z,32.62
2023-05-15T00:45:17.013Z,32.60
2023-05-15T00:46:17.063Z,32.59
2023-05-15T00:47:17.134Z,32.61
2023-05-15T00:48:17.158Z,32.59
2023-05-15T00:49:17.184Z,32.58
2023-05-15T00:50:17.237Z,32.57
2023-05-15T00:51:17.304Z,32.57
2023-05-15T00:52:17.348Z,32.60
2023-05-15T00:53:17.378Z,32.59
2023-05-15T00:54:17.473Z,32.57
2023-05-15T00:55:17.492Z,32.56
2023-05-15T00:56:17.547Z,32.57
2023-05-15T00:57:17.581Z,32.59
2023-05-15T00:58:17.628Z,32.56
2023-05-15T00:59:17.676Z,32.58
2023-05-15T01:00:17.742Z,32.55
2023-05-15T01:01:17.843Z,32.56
2023-05-15T01:02:17.884Z,32.55
2023-05-15T01:03:17.913Z,32.56
2023-05-15T01:04:17.913Z,32.55
2023-05-15T01:05:17.974Z,32.57
2023-05-15T01:06:18.011Z,32.55
2023-05-15T01:07:18.081Z,32.55
2023-05-15T01:08:18.114Z,32.56
2023-05-15T01:09:18.171Z,32.54
2023-05-15T01:10:18.237Z,32.53
2023-05-15T01:11:18.297Z,32.54
2023-05-15T01:12:18.337Z,32.53
2023-05-15T01:13:18.393Z,32.54
2023-05-15T01:14:18.451Z,32.53
2023-05-15T01:15:18.494Z,32.53
2023-05-15T01:16:18.578Z,32.51
2023-05-15T01:17:18.589Z,32.51
2023-05-15T01:19:18.793Z,32.53
2023-05-15T01:20:18.756Z,32.51
2023-05-15T01:21:18.805Z,32.52
2023-05-15T01:22:18.852Z,32.50
2023-05-15T01:23:18.903Z,32.48
2023-05-15T01:24:18.966Z,32.48
2023-05-15T01:25:19.011Z,32.46
2023-05-15T01:26:19.089Z,32.48
2023-05-15T01:27:19.136Z,32.47
2023-05-15T01:28:19.171Z,32.47
2023-05-15T01:29:19.236Z,32.44
2023-05-15T01:30:19.288Z,32.45
2023-05-15T01:31:19.363Z,32.45
2023-05-15T01:32:19.527Z,32.46
2023-05-15T01:33:19.455Z,32.46
2023-05-15T01:34:19.500Z,32.46
2023-05-15T01:35:19.541Z,32.48
2023-05-15T01:36:19.587Z,32.46
2023-05-15T01:37:19.650Z,32.46
2023-05-15T01:38:19.711Z,32.47
2023-05-15T01:39:19.755Z,32.45
2023-05-15T01:40:19.802Z,32.47
2023-05-15T01:41:19.845Z,32.47
2023-05-15T01:42:19.911Z,32.48
2023-05-15T01:43:19.959Z,32.47
2023-05-15T01:44:20.059Z,32.48
2023-05-15T01:45:20.061Z,32.48
2023-05-15T01:46:20.122Z,32.47
2023-05-15T01:47:20.166Z,32.50
2023-05-15T01:48:20.237Z,32.48
2023-05-15T01:49:20.270Z,32.49
2023-05-15T01:50:20.331Z,32.47
2023-05-15T01:51:20.401Z,32.47
2023-05-15T01:52:20.437Z,32.47
2023-05-15T01:53:20.518Z,32.48
2023-05-15T01:54:20.567Z,32.46
2023-05-15T01:55:20.628Z,32.46
2023-05-15T01:56:20.666Z,32.48
2023-05-15T01:57:20.721Z,32.48
2023-05-15T01:58:20.783Z,32.48
2023-05-15T01:59:20.845Z,32.49
2023-05-15T02:00:20.884Z,32.47
2023-05-15T02:01:20.975Z,32.48
2023-05-15T02:02:21.120Z,32.46
2023-05-15T02:03:21.133Z,32.47
2023-05-15T02:04:21.109Z,32.47
2023-05-15T02:05:21.154Z,32.48
2023-05-15T02:06:21.209Z,32.48
2023-05-15T02:07:21.248Z,32.47
2023-05-15T02:08:21.336Z,32.48
2023-05-15T02:09:21.371Z,32.49
2023-05-15T02:10:21.428Z,32.47
2023-05-15T02:11:21.505Z,32.48
2023-05-15T02:12:21.549Z,32.47
2023-05-15T02:13:21.596Z,32.48
2023-05-15T02:14:21.673Z,32.49
2023-05-15T02:15:21.703Z,32.49
2023-05-15T02:16:21.772Z,32.50
2023-05-15T02:17:21.836Z,32.47
2023-05-15T02:18:21.867Z,32.50
2023-05-15T02:19:21.922Z,32.48
2023-05-15T02:20:22.000Z,32.51
2023-05-15T02:21:22.052Z,32.48
2023-05-15T02:22:22.090Z,32.48
2023-05-15T02:23:22.147Z,32.49
2023-05-15T02:24:22.228Z,32.48
2023-05-15T02:25:22.274Z,32.47
2023-05-15T02:26:22.347Z,32.48
2023-05-15T02:27:22.410Z,32.48
2023-05-15T02:28:22.457Z,32.49
2023-05-15T02:29:22.511Z,32.47
2023-05-15T02:30:22.583Z,32.46
2023-05-15T02:31:24.358Z,32.47
2023-05-15T02:32:22.879Z,32.46
2023-05-15T02:33:22.745Z,32.47
2023-05-15T02:34:22.796Z,32.49
2023-05-15T02:35:22.957Z,32.48
2023-05-15T02:36:22.929Z,32.49
2023-05-15T02:37:22.967Z,32.46
2023-05-15T02:38:23.045Z,32.46
2023-05-15T02:39:23.098Z,32.47
2023-05-15T02:40:23.148Z,32.45
2023-05-15T02:41:23.225Z,32.45
2023-05-15T02:42:23.276Z,32.45
2023-05-15T02:43:23.328Z,32.47
2023-05-15T02:44:23.495Z,32.45
2023-05-15T02:45:23.569Z,32.44
2023-05-15T02:46:23.540Z,32.45
2023-05-15T02:47:23.615Z,32.45
2023-05-15T02:48:23.629Z,32.44
2023-05-15T02:49:23.682Z,32.44
2023-05-15T02:50:23.758Z,32.45
2023-05-15T02:51:23.814Z,32.42
2023-05-15T02:52:23.858Z,32.45
2023-05-15T02:53:23.934Z,32.43
2023-05-15T02:54:23.985Z,32.44
2023-05-15T02:55:24.236Z,32.43
2023-05-15T02:56:24.092Z,32.44
2023-05-15T02:57:24.165Z,32.43
2023-05-15T02:58:24.224Z,32.41
2023-05-15T02:59:24.262Z,32.42
2023-05-15T03:00:24.376Z,32.42
2023-05-15T03:01:24.507Z,32.41
2023-05-15T03:02:24.476Z,32.42
2023-05-15T03:03:24.482Z,32.41
2023-05-15T03:04:24.576Z,32.39
2023-05-15T03:05:24.798Z,32.41
2023-05-15T03:06:24.687Z,32.40
2023-05-15T03:07:24.717Z,32.39
2023-05-15T03:08:24.782Z,32.39
2023-05-15T03:09:24.853Z,32.36
2023-05-15T03:10:24.912Z,32.37
2023-05-15T03:11:24.978Z,32.37
2023-05-15T03:12:25.023Z,32.37
2023-05-15T03:13:25.085Z,32.39
2023-05-15T03:14:25.131Z,32.39
2023-05-15T03:15:25.420Z,32.38
2023-05-15T03:16:25.324Z,32.36
2023-05-15T03:17:25.317Z,32.38
2023-05-15T03:18:25.385Z,32.37
2023-05-15T03:19:25.425Z,32.38
2023-05-15T03:20:25.476Z,32.38
2023-05-15T03:21:25.541Z,32.36
2023-05-15T03:22:25.663Z,32.38
2023-05-15T03:23:25.658Z,32.38
2023-05-15T03:24:25.743Z,32.38
2023-05-15T03:25:26.002Z,32.38
2023-05-15T03:26:25.854Z,32.38
2023-05-15T03:27:25.920Z,32.37
2023-05-15T03:28:25.960Z,32.37
2023-05-15T03:29:26.034Z,32.36
2023-05-15T03:30:26.083Z,32.37
2023-05-15T03:31:26.163Z,32.39
2023-05-15T03:32:26.227Z,32.36
2023-05-15T03:33:26.257Z,32.38
2023-05-15T03:34:26.333Z,32.37
2023-05-15T03:35:26.608Z,32.36
2023-05-15T03:36:26.413Z,32.38
2023-05-15T03:37:26.488Z,32.36
2023-05-15T03:38:26.528Z,32.36
2023-05-15T03:39:26.589Z,32.36
2023-05-15T03:40:26.660Z,32.37
2023-05-15T03:41:26.725Z,32.39
2023-05-15T03:42:26.776Z,32.37
2023-05-15T03:43:26.902Z,32.39
2023-05-15T03:44:26.896Z,32.38
2023-05-15T03:45:27.344Z,32.40
2023-05-15T03:46:27.039Z,32.37
2023-05-15T03:47:27.098Z,32.38
2023-05-15T03:48:27.113Z,32.37
2023-05-15T03:49:27.169Z,32.36
2023-05-15T03:50:27.250Z,32.36
2023-05-15T03:51:27.308Z,32.38
2023-05-15T03:52:27.366Z,32.38
2023-05-15T03:53:27.433Z,32.39
2023-05-15T03:54:27.494Z,32.38
2023-05-15T03:55:27.658Z,32.40
2023-05-15T03:56:27.593Z,32.38
2023-05-15T03:57:27.657Z,32.38
2023-05-15T03:58:27.711Z,32.39
2023-05-15T03:59:27.778Z,32.37
2023-05-15T04:00:27.937Z,32.39
2023-05-15T04:01:27.905Z,32.41
2023-05-15T04:02:28.035Z,32.37
2023-05-15T04:03:28.102Z,32.39
2023-05-15T04:04:28.054Z,32.37
2023-05-15T04:05:28.385Z,32.40
2023-05-15T04:06:28.195Z,32.40
2023-05-15T04:07:28.242Z,32.38
2023-05-15T04:08:28.310Z,32.39
2023-05-15T04:09:28.365Z,32.38
2023-05-15T04:10:28.424Z,32.39
2023-05-15T04:11:28.502Z,32.39
2023-05-15T04:12:28.558Z,32.40
2023-05-15T04:13:28.605Z,32.39
2023-05-15T04:14:28.656Z,32.38
2023-05-15T04:15:28.857Z,32.41
2023-05-15T04:16:28.751Z,32.38
2023-05-15T04:17:28.835Z,32.40
2023-05-15T04:18:28.911Z,32.41
2023-05-15T04:19:28.940Z,32.41
2023-05-15T04:20:29.007Z,32.42
2023-05-15T04:21:29.034Z,32.41
2023-05-15T04:22:29.120Z,32.41
2023-05-15T04:23:29.169Z,32.41
2023-05-15T04:24:29.215Z,32.43
2023-05-15T04:25:29.294Z,32.41
2023-05-15T04:26:29.350Z,32.41
2023-05-15T04:27:29.396Z,32.41
2023-05-15T04:28:30.547Z,32.44
2023-05-15T04:29:29.559Z,32.42
2023-05-15T04:30:29.581Z,32.45
2023-05-15T04:31:29.677Z,32.44
2023-05-15T04:32:29.755Z,32.43
2023-05-15T04:33:29.751Z,32.43
2023-05-15T04:34:29.818Z,32.43
2023-05-15T04:35:29.857Z,32.43
2023-05-15T04:36:29.936Z,32.44
2023-05-15T04:37:29.985Z,32.44
2023-05-15T04:38:30.040Z,32.43
2023-05-15T04:39:30.106Z,32.44
2023-05-15T04:40:30.150Z,32.47
2023-05-15T04:41:30.203Z,32.46
2023-05-15T04:42:30.265Z,32.45
2023-05-15T04:43:30.341Z,32.47
2023-05-15T04:44:30.386Z,32.47
2023-05-15T04:45:30.459Z,32.47
2023-05-15T04:46:30.619Z,32.45
2023-05-15T04:47:30.565Z,32.44
2023-05-15T04:48:30.621Z,32.47
2023-05-15T04:49:30.675Z,32.46
2023-05-15T04:50:30.733Z,32.49
2023-05-15T04:51:30.774Z,32.49
2023-05-15T04:52:30.839Z,32.46
2023-05-15T04:53:30.913Z,32.47
2023-05-15T04:54:30.950Z,32.46
2023-05-15T04:55:31.733Z,32.50
2023-05-15T04:56:31.071Z,32.50
2023-05-15T04:57:31.133Z,32.48
2023-05-15T04:58:31.196Z,32.51
2023-05-15T04:59:31.244Z,32.49
2023-05-15T05:00:31.294Z,32.46
2023-05-15T05:01:31.383Z,32.50
2023-05-15T05:02:31.445Z,32.51
2023-05-15T05:03:31.490Z,32.54
2023-05-15T05:04:31.520Z,32.51
2023-05-15T05:05:31.580Z,32.51
2023-05-15T05:06:31.661Z,32.52
2023-05-15T05:07:31.709Z,32.51
2023-05-15T05:08:31.782Z,32.52
2023-05-15T05:09:31.844Z,32.53
2023-05-15T05:10:31.872Z,32.50
2023-05-15T05:11:31.927Z,32.50
2023-05-15T05:12:31.995Z,32.50
2023-05-15T05:13:32.060Z,32.51
2023-05-15T05:14:32.092Z,32.49
2023-05-15T05:15:32.172Z,32.54
2023-05-15T05:16:32.299Z,32.50
2023-05-15T05:17:32.271Z,32.52
2023-05-15T05:18:32.336Z,32.52
2023-05-15T05:19:32.382Z,32.52
2023-05-15T05:20:32.448Z,32.54
2023-05-15T05:21:32.529Z,32.50
2023-05-15T05:22:32.582Z,32.53
2023-05-15T05:23:32.639Z,32.53
2023-05-15T05:24:32.738Z,32.50
2023-05-15T05:25:32.760Z,32.49
2023-05-15T05:26:32.850Z,32.50
2023-05-15T05:27:32.852Z,32.62
2023-05-15T05:28:32.933Z,32.94
2023-05-15T05:29:32.977Z,33.51
2023-05-15T05:30:33.029Z,33.77
2023-05-15T05:31:33.323Z,34.64
2023-05-15T05:32:33.159Z,34.40
2023-05-15T05:33:33.186Z,34.76
2023-05-15T05:34:33.248Z,34.81
2023-05-15T05:35:33.308Z,35.01
2023-05-15T05:36:33.379Z,34.95
2023-05-15T05:37:33.440Z,34.86
2023-05-15T05:38:33.499Z,34.96
2023-05-15T05:39:33.542Z,34.67
2023-05-15T05:40:33.574Z,34.95
2023-05-15T05:41:33.652Z,35.11
2023-05-15T05:42:33.704Z,35.03
2023-05-15T05:43:33.751Z,35.07
2023-05-15T05:44:33.796Z,35.42
2023-05-15T05:45:33.868Z,35.47
2023-05-15T05:46:33.928Z,35.44
2023-05-15T05:47:34.011Z,35.55
2023-05-15T05:48:34.007Z,35.72
2023-05-15T05:49:34.034Z,35.75
2023-05-15T05:50:34.054Z,35.94
2023-05-15T05:51:34.072Z,36.20
2023-05-15T05:52:34.273Z,36.10
2023-05-15T05:53:34.118Z,36.18
2023-05-15T05:54:34.151Z,36.14
2023-05-15T05:55:34.189Z,36.17
2023-05-15T05:56:34.224Z,36.14
2023-05-15T05:57:34.248Z,36.36
2023-05-15T05:58:34.240Z,36.21
2023-05-15T05:59:34.259Z,36.28
2023-05-15T06:00:34.267Z,36.23
2023-05-15T06:01:34.280Z,36.34
2023-05-15T06:02:34.869Z,36.19
2023-05-15T06:03:34.348Z,36.27
2023-05-15T06:04:34.454Z,36.26
2023-05-15T06:05:34.307Z,36.21
2023-05-15T06:06:34.303Z,36.20
2023-05-15T06:07:34.312Z,36.21
2023-05-15T06:08:34.354Z,36.23
2023-05-15T06:09:34.319Z,36.23
2023-05-15T06:10:34.345Z,36.33
2023-05-15T06:11:34.335Z,36.24
2023-05-15T06:12:34.738Z,36.27
2023-05-15T06:13:34.323Z,36.17
2023-05-15T06:14:34.319Z,36.20
2023-05-15T06:15:34.353Z,36.18
2023-05-15T06:16:34.354Z,36.01
2023-05-15T06:17:34.762Z,36.10
2023-05-15T06:18:34.383Z,36.13
2023-05-15T06:19:34.300Z,36.08
2023-05-15T06:20:34.309Z,36.01
2023-05-15T06:21:34.317Z,35.99
2023-05-15T06:22:34.314Z,35.99
2023-05-15T06:23:34.318Z,35.94
2023-05-15T06:24:34.329Z,36.05
2023-05-15T06:25:34.311Z,36.16
2023-05-15T06:26:34.340Z,36.12
2023-05-15T06:27:34.346Z,35.99
2023-05-15T06:28:34.547Z,35.87
2023-05-15T06:29:34.376Z,35.86
2023-05-15T06:30:34.414Z,35.87
2023-05-15T06:31:34.390Z,36.00
2023-05-15T06:32:34.726Z,36.05
2023-05-15T06:33:34.406Z,36.07
2023-05-15T06:34:34.380Z,36.23
2023-05-15T06:35:34.391Z,35.70
2023-05-15T06:36:34.376Z,35.58
2023-05-15T06:37:34.752Z,35.55
2023-05-15T06:38:34.412Z,35.53
2023-05-15T06:39:34.399Z,35.79
2023-05-15T06:40:34.401Z,35.83
2023-05-15T06:41:34.425Z,35.75
2023-05-15T06:42:34.770Z,35.82
2023-05-15T06:43:35.847Z,35.65
2023-05-15T06:44:34.471Z,35.43
2023-05-15T06:45:34.454Z,35.50
2023-05-15T06:46:34.489Z,35.95
2023-05-15T06:47:34.510Z,35.89
2023-05-15T06:48:34.469Z,35.85
2023-05-15T06:49:34.473Z,35.78
2023-05-15T06:50:34.489Z,35.71
2023-05-15T06:51:34.482Z,35.49
2023-05-15T06:52:34.491Z,35.39
2023-05-15T06:53:34.499Z,35.35
2023-05-15T06:54:34.487Z,35.03
2023-05-15T06:55:34.505Z,35.03
2023-05-15T06:56:34.509Z,35.21
2023-05-15T06:57:34.497Z,35.12
2023-05-15T06:58:34.516Z,35.20
2023-05-15T06:59:34.519Z,34.97
2023-05-15T07:00:34.502Z,35.01
2023-05-15T07:01:34.545Z,34.86
2023-05-15T07:02:34.530Z,34.80
2023-05-15T07:03:34.515Z,35.01
2023-05-15T07:04:34.557Z,34.74
2023-05-15T07:05:34.513Z,35.36
2023-05-15T07:06:34.517Z,35.53
2023-05-15T07:07:34.821Z,35.55
2023-05-15T07:08:34.590Z,35.43
2023-05-15T07:09:34.619Z,36.00
2023-05-15T07:10:34.608Z,36.24
2023-05-15T07:11:34.637Z,36.17
2023-05-15T07:12:34.787Z,36.29
2023-05-15T07:13:34.690Z,36.30
2023-05-15T07:14:34.699Z,36.38
2023-05-15T07:15:34.738Z,36.26
2023-05-15T07:16:34.825Z,36.39
2023-05-15T07:17:34.846Z,36.45
2023-05-15T07:18:34.890Z,36.92
2023-05-15T07:19:34.907Z,36.98
2023-05-15T07:20:35.279Z,37.10
2023-05-15T07:21:34.892Z,37.03
2023-05-15T07:22:41.568Z,37.24
2023-05-15T07:23:35.921Z,37.45
2023-05-15T07:24:34.919Z,37.90
2023-05-15T07:25:34.893Z,38.09
2023-05-15T07:26:43.533Z,38.21
2023-05-15T07:27:36.284Z,38.10
2023-05-15T07:28:34.912Z,37.81
2023-05-15T07:29:34.889Z,37.44
2023-05-15T07:30:34.865Z,37.51
2023-05-15T07:31:34.946Z,37.42
2023-05-15T07:32:34.998Z,37.60
2023-05-15T07:33:34.843Z,37.72
2023-05-15T07:34:34.847Z,37.87
2023-05-15T07:35:34.828Z,37.80
2023-05-15T07:36:34.853Z,37.54
2023-05-15T07:37:35.284Z,37.55
2023-05-15T07:38:34.847Z,37.59
2023-05-15T07:39:34.877Z,37.59
2023-05-15T07:40:34.881Z,37.64
2023-05-15T07:41:34.896Z,37.61
2023-05-15T07:42:34.919Z,37.69
2023-05-15T07:43:34.887Z,37.51
2023-05-15T07:44:34.888Z,37.34
2023-05-15T07:45:34.987Z,37.33
2023-05-15T07:46:35.124Z,37.18
2023-05-15T07:47:35.056Z,37.17
2023-05-15T07:48:35.093Z,37.05
2023-05-15T07:49:35.151Z,37.09
2023-05-15T07:50:35.236Z,37.04
2023-05-15T07:51:35.282Z,36.92
2023-05-15T07:52:35.776Z,37.02
2023-05-15T07:53:35.381Z,36.95
2023-05-15T07:54:35.443Z,36.92
2023-05-15T07:55:35.484Z,36.90
2023-05-15T07:56:35.514Z,36.87
2023-05-15T07:57:35.575Z,36.84
2023-05-15T07:58:35.611Z,36.84
2023-05-15T07:59:35.724Z,36.81
2023-05-15T08:00:35.708Z,36.87
2023-05-15T08:01:35.771Z,36.87
2023-05-15T08:02:35.869Z,36.81
2023-05-15T08:03:35.956Z,36.82
2023-05-15T08:04:36.086Z,36.78
2023-05-15T08:05:35.930Z,36.79
2023-05-15T08:06:35.975Z,36.67
2023-05-15T08:07:36.021Z,36.64
2023-05-15T08:08:36.097Z,36.57
2023-05-15T08:09:36.092Z,36.46
2023-05-15T08:10:36.134Z,36.49
2023-05-15T08:11:36.179Z,36.44
2023-05-15T08:12:36.222Z,36.44
2023-05-15T08:13:36.246Z,36.43
2023-05-15T08:14:36.373Z,36.45
2023-05-15T08:15:36.345Z,36.43
2023-05-15T08:16:36.361Z,36.42
2023-05-15T08:17:36.391Z,36.48
2023-05-15T08:18:36.432Z,36.40
2023-05-15T08:19:36.456Z,36.45
2023-05-15T08:20:36.499Z,36.70
2023-05-15T08:21:36.533Z,36.41
2023-05-15T08:22:36.598Z,36.48
2023-05-15T08:23:36.632Z,36.61
2023-05-15T08:24:36.675Z,36.58
2023-05-15T08:25:36.720Z,36.54
2023-05-15T08:26:36.764Z,36.22
2023-05-15T08:27:37.296Z,36.56
2023-05-15T08:28:36.831Z,36.44
2023-05-15T08:29:39.337Z,36.54
2023-05-15T08:30:36.873Z,36.50
2023-05-15T08:31:36.890Z,36.40
2023-05-15T08:32:36.910Z,36.45
2023-05-15T08:33:36.846Z,36.40
2023-05-15T08:34:36.842Z,35.84
2023-05-15T08:35:36.842Z,35.78
2023-05-15T08:36:37.813Z,35.51
2023-05-15T08:37:37.310Z,35.38
2023-05-15T08:38:36.820Z,35.19
2023-05-15T08:39:36.791Z,35.20
2023-05-15T08:40:39.655Z,35.49
2023-05-15T08:42:36.768Z,35.69
2023-05-15T08:43:36.764Z,35.70
2023-05-15T08:44:36.771Z,35.60
2023-05-15T08:45:36.769Z,35.62
2023-05-15T08:46:36.760Z,35.56
2023-05-15T08:47:36.789Z,35.57
2023-05-15T08:48:36.853Z,35.50
2023-05-15T08:49:36.730Z,35.46
2023-05-15T08:50:36.721Z,35.38
2023-05-15T08:51:36.704Z,35.32
2023-05-15T08:52:36.837Z,35.27
2023-05-15T08:53:36.709Z,35.32
2023-05-15T08:54:36.684Z,35.36
2023-05-15T08:55:36.696Z,35.41
2023-05-15T08:56:36.682Z,35.47
2023-05-15T08:57:36.676Z,35.46
2023-05-15T08:58:36.665Z,35.32
2023-05-15T08:59:36.662Z,35.35
2023-05-15T09:00:36.637Z,35.20
2023-05-15T09:01:36.652Z,35.34
2023-05-15T09:02:36.669Z,35.39
2023-05-15T09:03:36.734Z,35.40
2023-05-15T09:04:36.609Z,35.43
2023-05-15T09:05:38.192Z,35.38
2023-05-15T09:06:36.594Z,35.38
2023-05-15T09:07:36.590Z,35.34
2023-05-15T09:08:36.590Z,35.29
2023-05-15T09:09:36.571Z,35.09
2023-05-15T09:10:36.591Z,35.11
2023-05-15T09:11:36.563Z,35.11
2023-05-15T09:12:36.547Z,34.92
2023-05-15T09:13:36.576Z,34.99
2023-05-15T09:14:36.533Z,34.95
2023-05-15T09:15:36.544Z,34.90
2023-05-15T09:16:36.554Z,34.86
2023-05-15T09:17:36.570Z,34.88
2023-05-15T09:18:36.526Z,34.88
2023-05-15T09:19:36.508Z,34.88
2023-05-15T09:20:36.494Z,34.81
2023-05-15T09:21:36.492Z,34.78
2023-05-15T09:22:36.832Z,34.75
2023-05-15T09:23:36.466Z,34.27
2023-05-15T09:24:36.466Z,34.50
2023-05-15T09:25:36.483Z,34.53
2023-05-15T09:26:36.462Z,34.40
2023-05-15T09:27:36.436Z,34.29
2023-05-15T09:28:36.454Z,34.00
2023-05-15T09:29:36.438Z,33.07
2023-05-15T09:30:36.439Z,33.53
2023-05-15T09:31:36.458Z,33.77
2023-05-15T09:32:36.481Z,33.77
2023-05-15T09:33:36.427Z,33.73
2023-05-15T09:34:36.389Z,33.72
2023-05-15T09:35:36.426Z,33.74
2023-05-15T09:36:36.383Z,33.74
2023-05-15T09:37:36.374Z,33.81
2023-05-15T09:38:36.386Z,33.80
2023-05-15T09:39:36.372Z,33.82
2023-05-15T09:40:36.405Z,33.85
2023-05-15T09:41:36.383Z,33.87
2023-05-15T09:42:36.354Z,33.86
2023-05-15T09:43:36.349Z,33.86
2023-05-15T09:44:36.337Z,33.84
2023-05-15T09:45:36.321Z,33.81
2023-05-15T09:46:36.416Z,33.79
2023-05-15T09:47:36.511Z,33.79
2023-05-15T09:48:36.447Z,33.77
2023-05-15T09:49:36.290Z,33.74
2023-05-15T09:50:36.281Z,33.09
2023-05-15T09:51:36.266Z,31.84
2023-05-15T09:52:36.264Z,31.74
2023-05-15T09:53:36.273Z,31.90
2023-05-15T09:54:36.254Z,31.79
2023-05-15T09:55:36.295Z,31.94
2023-05-15T09:56:36.236Z,31.76
2023-05-15T09:57:36.225Z,31.56
2023-05-15T09:58:36.219Z,31.35
2023-05-15T09:59:36.210Z,31.55
2023-05-15T10:00:36.210Z,31.55
2023-05-15T10:01:37.237Z,31.67
2023-05-15T10:02:36.233Z,31.58
2023-05-15T10:03:36.344Z,31.38
2023-05-15T10:04:36.191Z,30.67
2023-05-15T10:06:37.171Z,30.25
2023-05-15T10:07:36.159Z,30.60
2023-05-15T10:08:36.350Z,30.64
2023-05-15T10:09:36.143Z,30.56
2023-05-15T10:10:36.148Z,30.98
2023-05-15T10:11:36.123Z,31.03
2023-05-15T10:12:36.112Z,31.19
2023-05-15T10:13:36.113Z,31.21
2023-05-15T10:14:36.099Z,31.40
2023-05-15T10:15:36.093Z,31.10
2023-05-15T10:16:36.211Z,31.20
2023-05-15T10:17:36.121Z,31.24
2023-05-15T10:18:36.388Z,31.17
2023-05-15T10:19:41.561Z,31.34
2023-05-15T10:20:37.146Z,31.50
2023-05-15T10:21:36.131Z,31.92
2023-05-15T10:22:36.142Z,31.88
2023-05-15T10:23:36.351Z,32.08
2023-05-15T10:24:36.099Z,32.28
2023-05-15T10:25:36.128Z,32.41
2023-05-15T10:26:36.095Z,32.28
2023-05-15T10:27:36.092Z,32.35
2023-05-15T10:28:36.342Z,32.54
2023-05-15T10:29:36.126Z,32.65
2023-05-15T10:30:36.189Z,32.84
2023-05-15T10:31:36.341Z,32.90
2023-05-15T10:32:36.319Z,33.04
2023-05-15T10:33:36.325Z,33.47
2023-05-15T10:34:36.391Z,33.35
2023-05-15T10:35:36.530Z,33.47
2023-05-15T10:36:36.490Z,33.58
2023-05-15T10:37:36.528Z,33.63
2023-05-15T10:38:36.580Z,33.55
2023-05-15T10:39:36.577Z,33.46
2023-05-15T10:40:36.623Z,33.49
2023-05-15T10:41:36.624Z,33.60
2023-05-15T10:42:36.656Z,33.59
2023-05-15T10:43:36.700Z,33.81
2023-05-15T10:44:36.715Z,33.75
2023-05-15T10:45:36.716Z,33.70
2023-05-15T10:46:36.791Z,33.77
2023-05-15T10:47:36.796Z,33.80
2023-05-15T10:48:36.790Z,33.76
2023-05-15T10:49:36.806Z,33.77
2023-05-15T10:50:36.823Z,33.85
2023-05-15T10:51:36.857Z,33.78
2023-05-15T10:52:36.868Z,33.72
2023-05-15T10:53:36.880Z,33.78
2023-05-15T10:54:36.921Z,33.85
2023-05-15T10:55:36.950Z,33.85
2023-05-15T10:56:36.989Z,33.80
2023-05-15T10:57:36.981Z,33.82
2023-05-15T10:58:36.999Z,33.82
2023-05-15T10:59:37.033Z,33.87
2023-05-15T11:00:37.020Z,33.83
2023-05-15T11:01:37.234Z,33.84
2023-05-15T11:02:37.101Z,33.88
2023-05-15T11:03:48.121Z,33.92
2023-05-15T11:04:38.118Z,33.97
2023-05-15T11:05:37.071Z,33.99
2023-05-15T11:06:37.067Z,33.94
2023-05-15T11:07:37.087Z,33.98
2023-05-15T11:08:37.058Z,33.97
2023-05-15T11:09:37.088Z,33.99
2023-05-15T11:10:37.057Z,34.00
2023-05-15T11:11:37.048Z,34.04
2023-05-15T11:12:37.021Z,34.05
2023-05-15T11:13:37.355Z,34.11
2023-05-15T11:14:37.040Z,34.10
2023-05-15T11:15:37.015Z,33.95
2023-05-15T11:16:37.114Z,34.00
2023-05-15T11:17:37.023Z,33.43
2023-05-15T11:18:37.401Z,33.21
2023-05-15T11:19:36.982Z,32.91
2023-05-15T11:20:37.299Z,32.19
2023-05-15T11:21:36.961Z,32.04
2023-05-15T11:22:36.958Z,31.91
2023-05-15T11:23:37.379Z,31.81
2023-05-15T11:24:36.956Z,31.68
2023-05-15T11:25:36.924Z,31.73
2023-05-15T11:26:36.939Z,33.00
2023-05-15T11:27:36.967Z,33.06
2023-05-15T11:28:36.976Z,32.60
2023-05-15T11:29:36.979Z,32.69
2023-05-15T11:30:37.028Z,32.36
2023-05-15T11:31:37.066Z,32.31
2023-05-15T11:32:37.097Z,32.34
2023-05-15T11:33:37.102Z,32.22
2023-05-15T11:34:37.128Z,32.23
2023-05-15T11:35:37.123Z,32.51
2023-05-15T11:36:37.783Z,32.67
2023-05-15T11:37:37.179Z,32.62
2023-05-15T11:38:37.206Z,32.70
2023-05-15T11:39:37.229Z,32.77
2023-05-15T11:40:37.269Z,32.82
2023-05-15T11:41:37.306Z,32.90
2023-05-15T11:42:37.316Z,33.02
2023-05-15T11:43:37.375Z,33.05
2023-05-15T11:44:37.362Z,33.22
2023-05-15T11:45:37.392Z,33.27
2023-05-15T11:46:37.470Z,33.25
2023-05-15T11:47:37.436Z,33.29
2023-05-15T11:48:37.489Z,33.28
2023-05-15T11:49:37.483Z,33.29
2023-05-15T11:50:37.538Z,33.25
2023-05-15T11:51:37.542Z,33.26
2023-05-15T11:52:37.571Z,33.21
2023-05-15T11:53:37.584Z,33.12
2023-05-15T11:54:37.610Z,33.13
2023-05-15T11:55:37.625Z,33.07
2023-05-15T11:56:37.654Z,33.00
2023-05-15T11:57:37.664Z,33.00
2023-05-15T11:58:37.691Z,32.83
2023-05-15T11:59:37.722Z,32.85
2023-05-15T12:00:37.753Z,32.75
2023-05-15T12:01:37.758Z,32.69
2023-05-15T12:02:37.830Z,32.71
2023-05-15T12:03:38.218Z,32.60
2023-05-15T12:04:37.898Z,32.40
2023-05-15T12:05:42.257Z,32.35
2023-05-15T12:06:38.884Z,32.31
2023-05-15T12:07:37.881Z,32.17
2023-05-15T12:08:37.878Z,32.23
2023-05-15T12:09:37.842Z,32.18
2023-05-15T12:10:37.835Z,32.10
2023-05-15T12:11:37.851Z,31.94
2023-05-15T12:12:37.820Z,32.01
2023-05-15T12:13:37.884Z,31.91
2023-05-15T12:14:37.806Z,31.96
2023-05-15T12:15:37.807Z,31.87
2023-05-15T12:16:37.836Z,31.83
2023-05-15T12:17:37.809Z,31.82
2023-05-15T12:18:37.838Z,31.89
2023-05-15T12:19:37.791Z,31.92
2023-05-15T12:20:37.807Z,31.86
2023-05-15T12:21:37.938Z,31.91
2023-05-15T12:22:37.845Z,31.93
2023-05-15T12:23:37.905Z,31.96
2023-05-15T12:24:37.926Z,31.97
2023-05-15T12:25:37.963Z,31.88
2023-05-15T12:26:37.975Z,31.95
2023-05-15T12:27:38.025Z,31.87
2023-05-15T12:28:38.051Z,31.93
2023-05-15T12:29:38.093Z,31.99
2023-05-15T12:30:38.132Z,31.86
2023-05-15T12:31:38.199Z,31.93
2023-05-15T12:32:38.221Z,31.77
2023-05-15T12:33:38.330Z,31.76
2023-05-15T12:34:38.267Z,31.74
2023-05-15T12:35:38.276Z,31.80
2023-05-15T12:36:38.320Z,31.73
2023-05-15T12:37:38.340Z,31.65
2023-05-15T12:38:38.398Z,31.69
2023-05-15T12:39:38.429Z,31.63
2023-05-15T12:40:38.441Z,31.65
2023-05-15T12:41:38.477Z,31.58
2023-05-15T12:42:38.525Z,31.65
2023-05-15T12:43:38.570Z,31.60
2023-05-15T12:44:38.611Z,31.53
2023-05-15T12:45:38.641Z,31.53
2023-05-15T12:46:38.741Z,31.42
2023-05-15T12:47:38.790Z,31.43
2023-05-15T12:48:38.744Z,31.39
2023-05-15T12:49:38.779Z,31.35
2023-05-15T12:50:38.821Z,31.27
2023-05-15T12:51:38.858Z,31.22
2023-05-15T12:52:38.897Z,31.24
2023-05-15T12:53:39.010Z,31.25
2023-05-15T12:54:38.967Z,31.17
2023-05-15T12:55:39.000Z,31.07